Time;durP1;ratioP1;P1;durP2;ratioP2;P2;SDS_P1;SDS_P2;PMS_P1;PMS_P2;Temp;Humidity;BMP_temperature;BMP_pressure;BME280_temperature;BME280_humidity;BME280_pressure;Samples;Min_cycle;Max_cycle;Signal;HPM_P1;HPM_P2
2023/12/26 00:02:01;;;;;;;1.50;1.40;;;12.70;99.90;;;;;;5000767;28;20535;-39
2023/12/26 00:04:27;;;;;;;1.80;1.57;;;12.70;99.90;;;;;;4993302;28;20505;-35
2023/12/26 00:06:53;;;;;;;3.13;1.50;;;12.70;99.90;;;;;;4993775;28;20516;-37
2023/12/26 00:09:20;;;;;;;1.50;1.40;;;12.70;99.90;;;;;;4994778;28;20448;-35
2023/12/26 00:11:46;;;;;;;2.10;1.50;;;12.70;99.90;;;;;;4988545;28;20421;-35
2023/12/26 00:14:16;;;;;;;3.27;1.50;;;12.70;99.90;;;;;;4998457;28;20516;-38
2023/12/26 00:16:45;;;;;;;1.80;1.60;;;12.70;99.90;;;;;;4998336;28;20877;-38
2023/12/26 00:19:13;;;;;;;2.70;1.30;;;12.70;99.90;;;;;;5000636;28;20452;-37
2023/12/26 00:21:39;;;;;;;1.20;1.10;;;12.70;99.90;;;;;;4997124;28;20449;-31
2023/12/26 00:24:06;;;;;;;1.47;1.27;;;12.70;99.90;;;;;;4998301;28;20441;-39
2023/12/26 00:26:32;;;;;;;1.63;1.27;;;12.70;99.90;;;;;;4989659;28;20562;-35
2023/12/26 00:29:01;;;;;;;3.53;1.40;;;12.70;99.90;;;;;;4994678;28;20428;-37
2023/12/26 00:31:31;;;;;;;1.23;1.13;;;12.70;99.90;;;;;;4995646;28;20532;-39
2023/12/26 00:34:00;;;;;;;1.40;1.30;;;12.70;99.90;;;;;;4972472;28;20849;-36
2023/12/26 00:36:29;;;;;;;1.40;1.20;;;12.70;99.90;;;;;;4992197;28;20447;-40
2023/12/26 00:38:57;;;;;;;1.53;1.10;;;12.70;99.90;;;;;;4984531;28;21342;-37
2023/12/26 00:41:24;;;;;;;1.30;1.20;;;12.70;99.90;;;;;;4986339;28;20685;-32
2023/12/26 00:43:51;;;;;;;1.03;0.93;;;12.70;99.90;;;;;;4995152;28;20906;-35
2023/12/26 00:46:21;;;;;;;1.23;1.10;;;12.70;99.90;;;;;;4997980;28;20433;-33
2023/12/26 00:48:47;;;;;;;1.43;1.33;;;12.70;99.90;;;;;;4979646;28;20468;-35
2023/12/26 00:51:13;;;;;;;1.63;1.10;;;12.70;99.90;;;;;;4988487;28;20475;-36
2023/12/26 00:53:39;;;;;;;1.97;1.50;;;12.70;99.90;;;;;;4996938;28;20428;-37
2023/12/26 00:56:05;;;;;;;3.60;1.00;;;12.70;99.90;;;;;;4992650;28;20519;-38
2023/12/26 00:58:31;;;;;;;1.30;1.20;;;12.70;99.90;;;;;;4991245;28;20437;-35
2023/12/26 01:00:58;;;;;;;1.23;1.13;;;12.70;99.90;;;;;;4995949;28;20448;-39
2023/12/26 01:03:26;;;;;;;1.10;0.90;;;12.70;99.90;;;;;;4990948;28;20503;-35
2023/12/26 01:05:55;;;;;;;1.70;1.20;;;12.70;99.90;;;;;;4972025;28;20421;-40
2023/12/26 01:08:21;;;;;;;1.10;1.00;;;12.70;99.90;;;;;;4997425;28;21431;-36
2023/12/26 01:10:48;;;;;;;1.10;1.00;;;12.70;99.90;;;;;;4994762;28;20421;-40
2023/12/26 01:13:16;;;;;;;1.10;1.00;;;12.70;99.90;;;;;;4990755;28;20424;-33
2023/12/26 01:15:47;;;;;;;2.03;1.27;;;12.70;99.90;;;;;;4994515;28;20424;-35
2023/12/26 01:18:16;;;;;;;1.20;1.10;;;12.70;99.90;;;;;;4997784;28;20439;-39
2023/12/26 01:20:42;;;;;;;3.43;1.10;;;12.70;99.90;;;;;;4990389;28;20448;-39
2023/12/26 01:23:08;;;;;;;2.23;1.27;;;12.70;99.90;;;;;;4997856;28;21262;-37
2023/12/26 01:25:35;;;;;;;1.03;0.93;;;12.70;99.90;;;;;;4988631;28;20428;-35
2023/12/26 01:28:06;;;;;;;1.30;1.20;;;12.70;99.90;;;;;;4996313;28;20562;-38
2023/12/26 01:30:38;;;;;;;1.07;0.97;;;12.60;99.90;;;;;;4984640;28;20421;-34
2023/12/26 01:33:05;;;;;;;1.70;1.30;;;12.70;99.90;;;;;;4986994;28;20498;-38
2023/12/26 01:35:31;;;;;;;1.77;1.13;;;12.70;99.90;;;;;;4986649;28;20448;-36
2023/12/26 01:37:57;;;;;;;2.13;1.00;;;12.70;99.90;;;;;;4997901;28;20552;-40
2023/12/26 01:40:23;;;;;;;1.40;1.30;;;12.70;99.90;;;;;;4989350;28;20444;-37
2023/12/26 01:42:50;;;;;;;1.40;1.30;;;12.70;99.90;;;;;;4991257;28;21191;-34
2023/12/26 01:45:16;;;;;;;1.40;1.10;;;12.60;99.90;;;;;;4997481;28;20485;-41
2023/12/26 01:47:44;;;;;;;1.13;1.03;;;12.60;99.90;;;;;;4973124;28;20480;-37
2023/12/26 01:50:14;;;;;;;1.43;1.20;;;12.60;99.90;;;;;;4997600;28;20487;-37
2023/12/26 01:52:41;;;;;;;1.20;1.07;;;12.60;99.90;;;;;;4994118;28;20408;-35
2023/12/26 01:55:11;;;;;;;1.77;1.03;;;12.60;99.90;;;;;;4993905;28;20471;-40
2023/12/26 01:57:41;;;;;;;2.30;1.60;;;12.60;99.90;;;;;;4990557;28;21299;-38
2023/12/26 02:00:10;;;;;;;1.57;1.20;;;12.60;99.90;;;;;;4973005;28;20425;-37
2023/12/26 02:02:46;;;;;;;1.60;1.33;;;12.60;99.90;;;;;;4986465;28;21199;-35
2023/12/26 02:05:13;;;;;;;1.37;1.20;;;12.60;99.90;;;;;;4989142;28;20433;-40
2023/12/26 02:07:40;;;;;;;1.10;1.00;;;12.60;99.90;;;;;;4994452;28;20620;-34
2023/12/26 02:10:06;;;;;;;1.40;1.10;;;12.60;99.90;;;;;;4976162;28;20424;-36
2023/12/26 02:12:36;;;;;;;1.27;1.10;;;12.60;99.90;;;;;;4988462;28;21424;-40
2023/12/26 02:15:06;;;;;;;1.30;1.20;;;12.50;99.90;;;;;;4971496;28;20444;-33
2023/12/26 02:17:34;;;;;;;1.30;1.00;;;12.50;99.90;;;;;;4981143;28;20490;-37
2023/12/26 02:20:09;;;;;;;1.40;1.30;;;12.50;99.90;;;;;;4982677;28;20511;-36
2023/12/26 02:22:35;;;;;;;2.70;1.00;;;12.50;99.90;;;;;;4990778;28;20436;-37
2023/12/26 02:25:01;;;;;;;2.03;1.20;;;12.50;99.90;;;;;;4994212;28;20482;-34
2023/12/26 02:27:31;;;;;;;1.40;1.27;;;12.50;99.90;;;;;;4994129;28;20476;-35
2023/12/26 02:30:01;;;;;;;1.60;1.10;;;12.50;99.90;;;;;;4996254;28;21332;-36
2023/12/26 02:32:29;;;;;;;1.10;1.00;;;12.50;99.90;;;;;;4987265;28;20544;-40
2023/12/26 02:34:55;;;;;;;1.57;1.20;;;12.50;99.90;;;;;;4996801;28;20423;-34
2023/12/26 02:37:25;;;;;;;1.30;1.13;;;12.50;99.90;;;;;;4985347;28;21049;-37
2023/12/26 02:39:51;;;;;;;1.30;1.10;;;12.50;99.90;;;;;;4995955;28;20479;-39
2023/12/26 02:42:18;;;;;;;1.43;1.10;;;12.50;99.90;;;;;;4973062;28;20425;-36
2023/12/26 02:44:44;;;;;;;1.20;1.10;;;12.50;99.90;;;;;;4997256;28;21052;-36
2023/12/26 02:47:12;;;;;;;1.47;1.10;;;12.50;99.90;;;;;;4987782;28;20472;-37
2023/12/26 02:49:38;;;;;;;1.00;0.90;;;12.50;99.90;;;;;;4996547;28;20421;-40
2023/12/26 02:52:04;;;;;;;1.80;1.07;;;12.40;99.90;;;;;;4998829;28;20416;-37
2023/12/26 02:54:30;;;;;;;1.67;1.10;;;12.50;99.90;;;;;;4970246;28;20437;-37
2023/12/26 02:56:56;;;;;;;1.07;0.97;;;12.50;99.90;;;;;;4987653;28;20462;-36
2023/12/26 02:59:23;;;;;;;1.10;1.00;;;12.50;99.90;;;;;;4996483;28;20855;-37
2023/12/26 03:01:49;;;;;;;1.83;0.93;;;12.40;99.90;;;;;;4988971;28;20439;-33
2023/12/26 03:04:19;;;;;;;1.83;1.00;;;12.50;99.90;;;;;;4995599;28;20542;-38
2023/12/26 03:06:45;;;;;;;1.73;1.00;;;12.40;99.90;;;;;;4976674;28;20472;-32
2023/12/26 03:09:12;;;;;;;1.00;0.90;;;12.40;99.90;;;;;;4990213;28;20429;-37
2023/12/26 03:11:38;;;;;;;1.20;1.00;;;12.40;99.90;;;;;;4991847;28;20444;-35
2023/12/26 03:14:06;;;;;;;1.27;1.00;;;12.40;99.90;;;;;;4989711;28;20440;-37
2023/12/26 03:16:32;;;;;;;1.37;1.20;;;12.40;99.90;;;;;;4973415;28;20464;-37
2023/12/26 03:18:59;;;;;;;1.53;1.30;;;12.40;99.90;;;;;;4992882;28;20448;-37
2023/12/26 03:21:25;;;;;;;1.27;1.10;;;12.40;99.90;;;;;;4989779;28;20447;-36
2023/12/26 03:23:54;;;;;;;1.33;1.23;;;12.40;99.90;;;;;;4995041;28;20434;-40
2023/12/26 03:26:25;;;;;;;1.57;1.27;;;12.40;99.90;;;;;;4995908;28;21093;-35
2023/12/26 03:28:54;;;;;;;1.33;1.23;;;12.40;99.90;;;;;;4996071;28;20435;-40
2023/12/26 03:31:20;;;;;;;1.40;1.30;;;12.40;99.90;;;;;;4992381;28;20428;-39
2023/12/26 03:33:55;;;;;;;2.23;1.17;;;12.40;99.90;;;;;;4961875;28;20457;-38
2023/12/26 03:36:21;;;;;;;2.20;1.43;;;12.40;99.90;;;;;;4979151;28;20448;-39
2023/12/26 03:38:47;;;;;;;1.90;1.40;;;12.40;99.90;;;;;;4979670;28;21339;-35
2023/12/26 03:41:13;;;;;;;2.10;1.20;;;12.40;99.90;;;;;;4947833;28;20445;-36
2023/12/26 03:43:39;;;;;;;1.17;1.07;;;12.40;99.90;;;;;;4966037;28;20525;-33
2023/12/26 03:46:06;;;;;;;7.70;1.40;;;12.40;99.90;;;;;;4978893;28;20511;-37
2023/12/26 03:48:32;;;;;;;1.10;1.00;;;12.40;99.90;;;;;;4984118;28;20504;-38
2023/12/26 03:50:58;;;;;;;1.67;1.20;;;12.40;99.90;;;;;;4981413;28;21278;-38
2023/12/26 03:53:24;;;;;;;1.70;1.40;;;12.40;99.90;;;;;;4982250;28;20455;-36
2023/12/26 03:55:53;;;;;;;2.40;1.30;;;12.40;99.90;;;;;;4982613;28;20425;-34
2023/12/26 03:58:20;;;;;;;1.50;1.40;;;12.40;99.90;;;;;;5002340;28;20514;-34
2023/12/26 04:00:46;;;;;;;4.63;1.80;;;12.40;99.90;;;;;;4983882;28;20963;-35
2023/12/26 04:03:12;;;;;;;1.57;1.47;;;12.40;99.90;;;;;;4982297;28;20443;-36
2023/12/26 04:05:39;;;;;;;1.33;1.23;;;12.40;99.90;;;;;;4945902;28;21410;-35
2023/12/26 04:08:05;;;;;;;1.83;1.20;;;12.30;99.90;;;;;;4981142;28;20472;-37
2023/12/26 04:10:34;;;;;;;5.13;1.23;;;12.30;99.90;;;;;;4980959;28;20427;-36
2023/12/26 04:13:05;;;;;;;2.33;1.53;;;12.30;99.90;;;;;;4998171;28;20431;-37
2023/12/26 04:15:31;;;;;;;2.50;1.23;;;12.40;99.90;;;;;;4980913;28;21462;-38
2023/12/26 04:18:02;;;;;;;2.10;1.40;;;12.40;99.90;;;;;;4981885;28;20456;-38
2023/12/26 04:20:33;;;;;;;1.60;1.20;;;12.40;99.90;;;;;;4998077;28;20852;-39
2023/12/26 04:23:01;;;;;;;1.90;1.20;;;12.40;99.90;;;;;;4980755;28;20520;-38
2023/12/26 04:25:30;;;;;;;1.70;1.47;;;12.30;99.90;;;;;;4980567;28;20464;-36
2023/12/26 04:27:56;;;;;;;1.87;1.43;;;12.40;99.90;;;;;;4978690;28;20472;-40
2023/12/26 04:30:23;;;;;;;1.50;1.40;;;12.30;99.90;;;;;;4962989;28;20452;-38
2023/12/26 04:32:49;;;;;;;2.57;1.40;;;12.30;99.90;;;;;;4967662;28;20479;-39
2023/12/26 04:35:15;;;;;;;1.63;1.40;;;12.30;99.90;;;;;;4980243;28;20417;-36
2023/12/26 04:37:41;;;;;;;3.83;1.40;;;12.30;99.90;;;;;;4963681;28;21181;-35
2023/12/26 04:40:08;;;;;;;3.23;1.60;;;12.30;99.90;;;;;;4997081;28;20497;-36
2023/12/26 04:42:39;;;;;;;2.27;1.50;;;12.30;99.90;;;;;;4982202;28;20429;-33
2023/12/26 04:45:05;;;;;;;1.27;1.17;;;12.30;99.90;;;;;;4994455;28;21363;-39
2023/12/26 04:47:31;;;;;;;1.53;1.27;;;12.30;99.90;;;;;;4981455;28;20472;-33
2023/12/26 04:49:59;;;;;;;1.20;1.10;;;12.30;99.90;;;;;;4980281;28;20495;-37
2023/12/26 04:52:25;;;;;;;1.90;1.70;;;12.30;99.90;;;;;;4979897;28;20439;-35
2023/12/26 04:54:53;;;;;;;1.33;1.23;;;12.30;99.90;;;;;;4962340;28;20429;-38
2023/12/26 04:57:20;;;;;;;1.20;1.10;;;12.30;99.90;;;;;;4980606;28;20460;-34
2023/12/26 04:59:48;;;;;;;1.63;1.10;;;12.30;99.90;;;;;;4980638;28;20479;-40
2023/12/26 05:02:18;;;;;;;1.23;1.13;;;12.30;99.90;;;;;;4965137;28;20443;-40
2023/12/26 05:04:44;;;;;;;1.20;1.10;;;12.30;99.90;;;;;;4994570;28;20485;-34
2023/12/26 05:07:13;;;;;;;5.10;1.30;;;12.30;99.90;;;;;;4961095;28;20500;-36
2023/12/26 05:09:39;;;;;;;1.60;1.47;;;12.30;99.90;;;;;;4985605;28;20484;-40
2023/12/26 05:12:06;;;;;;;3.37;1.13;;;12.30;99.90;;;;;;4979967;28;20425;-36
2023/12/26 05:14:38;;;;;;;1.80;1.50;;;12.30;99.90;;;;;;4986928;28;21286;-32
2023/12/26 05:17:06;;;;;;;6.40;1.37;;;12.30;99.90;;;;;;4989501;28;20459;-40
2023/12/26 05:19:32;;;;;;;3.43;1.20;;;12.30;99.90;;;;;;4978875;28;20420;-37
2023/12/26 05:22:01;;;;;;;1.20;1.10;;;12.30;99.90;;;;;;4963727;28;20472;-40
2023/12/26 05:24:35;;;;;;;2.20;1.40;;;12.20;99.90;;;;;;4979168;28;20440;-33
2023/12/26 05:27:01;;;;;;;1.40;1.10;;;12.30;99.90;;;;;;4982566;28;20476;-37
2023/12/26 05:29:28;;;;;;;2.90;1.40;;;12.30;99.90;;;;;;4979159;28;21092;-38
2023/12/26 05:31:56;;;;;;;2.10;1.40;;;12.30;99.90;;;;;;4979480;28;20472;-36
2023/12/26 05:34:22;;;;;;;2.20;1.47;;;12.20;99.90;;;;;;4978525;28;20512;-36
2023/12/26 05:36:51;;;;;;;1.33;1.20;;;12.30;99.90;;;;;;4978539;28;20444;-36
2023/12/26 05:39:20;;;;;;;1.60;1.50;;;12.30;99.90;;;;;;4978834;28;21123;-40
2023/12/26 05:41:46;;;;;;;1.40;1.30;;;12.20;99.90;;;;;;4978771;28;20880;-38
2023/12/26 05:44:12;;;;;;;2.10;1.40;;;12.20;99.90;;;;;;4978690;28;21026;-38
2023/12/26 05:46:42;;;;;;;1.53;1.40;;;12.30;99.90;;;;;;4976208;28;20900;-34
2023/12/26 05:49:10;;;;;;;1.73;1.50;;;12.20;99.90;;;;;;4978810;28;21010;-38
2023/12/26 05:51:36;;;;;;;1.90;1.50;;;12.30;99.90;;;;;;4974926;28;20420;-37
2023/12/26 05:54:03;;;;;;;1.70;1.53;;;12.20;99.90;;;;;;4955307;28;20435;-39
2023/12/26 05:56:29;;;;;;;1.60;1.50;;;12.20;99.90;;;;;;4996185;28;20444;-35
2023/12/26 05:58:55;;;;;;;2.07;1.47;;;12.20;99.90;;;;;;4961571;28;21081;-36
2023/12/26 06:01:21;;;;;;;1.77;1.50;;;12.20;99.90;;;;;;4978590;28;21154;-35
2023/12/26 06:03:50;;;;;;;2.50;1.60;;;12.20;99.90;;;;;;4978284;28;20440;-34
2023/12/26 06:06:16;;;;;;;1.80;1.53;;;12.20;99.90;;;;;;4978360;28;21047;-40
2023/12/26 06:08:44;;;;;;;2.70;1.50;;;12.20;99.90;;;;;;4997764;28;21136;-35
2023/12/26 06:11:10;;;;;;;1.73;1.50;;;12.20;99.90;;;;;;4978566;28;20432;-38
2023/12/26 06:13:39;;;;;;;3.93;1.60;;;12.20;99.90;;;;;;4993335;28;20436;-37
2023/12/26 06:16:08;;;;;;;3.53;1.90;;;12.20;99.90;;;;;;4987702;28;20442;-36
2023/12/26 06:18:37;;;;;;;2.43;1.80;;;12.20;99.90;;;;;;4964761;28;21078;-37
2023/12/26 06:21:03;;;;;;;3.90;1.83;;;12.20;99.90;;;;;;4987535;28;20433;-36
2023/12/26 06:23:31;;;;;;;3.60;1.80;;;12.20;99.90;;;;;;4962328;28;20472;-36
2023/12/26 06:25:57;;;;;;;3.37;2.40;;;12.20;99.90;;;;;;4977799;28;21014;-37
2023/12/26 06:28:24;;;;;;;6.47;2.13;;;12.20;99.90;;;;;;4981333;28;20880;-33
2023/12/26 06:30:50;;;;;;;3.00;1.90;;;12.20;99.90;;;;;;4977869;28;20502;-35
2023/12/26 06:33:19;;;;;;;2.53;2.10;;;12.20;99.90;;;;;;4962215;28;20448;-33
2023/12/26 06:35:50;;;;;;;4.10;2.60;;;12.20;99.90;;;;;;4978083;28;20428;-36
2023/12/26 06:38:19;;;;;;;4.07;2.60;;;12.20;99.90;;;;;;4965803;28;20430;-34
2023/12/26 06:40:49;;;;;;;2.67;2.10;;;12.20;99.90;;;;;;4960167;28;20445;-35
2023/12/26 06:43:15;;;;;;;2.27;1.93;;;12.20;99.90;;;;;;4983662;28;20951;-40
2023/12/26 06:45:41;;;;;;;3.30;2.00;;;12.20;99.90;;;;;;4977817;28;21029;-37
2023/12/26 06:48:08;;;;;;;3.93;1.90;;;12.20;99.90;;;;;;4958466;28;20481;-37
2023/12/26 06:50:35;;;;;;;6.57;3.27;;;12.20;99.90;;;;;;4978202;28;20900;-34
2023/12/26 06:53:04;;;;;;;3.50;2.40;;;12.20;99.90;;;;;;4996015;28;20532;-33
2023/12/26 06:55:30;;;;;;;3.83;2.53;;;12.20;99.90;;;;;;4961476;28;20444;-38
2023/12/26 06:57:56;;;;;;;4.00;2.27;;;12.20;99.90;;;;;;4978897;28;20547;-36
2023/12/26 07:00:26;;;;;;;6.77;2.47;;;12.20;99.90;;;;;;4961509;28;20962;-36
2023/12/26 07:02:54;;;;;;;2.27;2.13;;;12.20;99.90;;;;;;4979722;28;20452;-38
2023/12/26 07:05:21;;;;;;;3.87;2.40;;;12.20;99.90;;;;;;4948708;28;20956;-33
2023/12/26 07:07:49;;;;;;;3.70;2.60;;;12.20;99.90;;;;;;4965247;28;20534;-35
2023/12/26 07:10:15;;;;;;;4.93;2.50;;;12.20;99.90;;;;;;5001028;28;20413;-40
2023/12/26 07:12:43;;;;;;;2.47;2.27;;;12.20;99.90;;;;;;4985138;28;20808;-36
2023/12/26 07:15:12;;;;;;;3.13;2.37;;;12.20;99.90;;;;;;5000456;28;20591;-34
2023/12/26 07:17:38;;;;;;;3.13;2.50;;;12.20;99.90;;;;;;4982675;28;21035;-36
2023/12/26 07:20:08;;;;;;;4.60;2.57;;;12.20;99.90;;;;;;5000748;28;20640;-40
2023/12/26 07:22:38;;;;;;;4.20;2.67;;;12.20;99.90;;;;;;4967002;28;20475;-36
2023/12/26 07:25:10;;;;;;;3.37;2.47;;;12.20;99.90;;;;;;4949158;28;20900;-36
2023/12/26 07:27:36;;;;;;;3.53;2.97;;;12.20;99.90;;;;;;4999684;28;20702;-35
2023/12/26 07:30:02;;;;;;;2.93;2.33;;;12.10;99.90;;;;;;4991781;28;20516;-35
2023/12/26 07:32:28;;;;;;;7.27;2.90;;;12.20;99.90;;;;;;4981918;28;20450;-37
2023/12/26 07:34:54;;;;;;;2.80;2.47;;;12.20;99.90;;;;;;5004204;28;20433;-36
2023/12/26 07:37:20;;;;;;;5.83;2.93;;;12.10;99.90;;;;;;4981192;28;20484;-35
2023/12/26 07:39:49;;;;;;;6.60;2.83;;;12.10;99.90;;;;;;4995290;28;20994;-35
2023/12/26 07:42:15;;;;;;;4.50;2.50;;;12.20;99.90;;;;;;4999675;28;20448;-39
2023/12/26 07:44:41;;;;;;;4.07;2.60;;;12.20;99.90;;;;;;4980568;28;20848;-37
2023/12/26 07:47:07;;;;;;;5.93;2.20;;;12.10;99.90;;;;;;4998955;28;20478;-37
2023/12/26 07:49:33;;;;;;;3.93;2.87;;;12.10;99.90;;;;;;4997967;28;21226;-37
2023/12/26 07:52:04;;;;;;;4.40;2.20;;;12.10;99.90;;;;;;4991740;28;20512;-38
2023/12/26 07:54:33;;;;;;;3.60;2.20;;;12.10;99.90;;;;;;5001277;28;20447;-39
2023/12/26 07:56:59;;;;;;;3.87;2.10;;;12.10;99.90;;;;;;4998190;28;20463;-38
2023/12/26 07:59:25;;;;;;;3.67;2.40;;;12.10;99.90;;;;;;4979673;28;20416;-41
2023/12/26 08:01:51;;;;;;;2.90;2.27;;;12.10;99.90;;;;;;4998064;28;20526;-40
2023/12/26 08:04:17;;;;;;;4.30;2.70;;;12.10;99.90;;;;;;5000524;28;20449;-38
2023/12/26 08:06:45;;;;;;;5.70;2.40;;;12.10;99.90;;;;;;4997357;28;20448;-36
2023/12/26 08:09:14;;;;;;;4.30;2.23;;;12.10;99.90;;;;;;4999312;28;20425;-35
2023/12/26 08:11:40;;;;;;;5.03;2.10;;;12.10;99.90;;;;;;4996047;28;20428;-39
2023/12/26 08:14:13;;;;;;;3.93;2.20;;;12.10;99.90;;;;;;4998774;28;20451;-38
2023/12/26 08:16:39;;;;;;;3.50;2.23;;;12.10;99.90;;;;;;4994763;28;20463;-40
2023/12/26 08:19:07;;;;;;;3.07;2.40;;;12.10;99.90;;;;;;4995752;28;21508;-36
2023/12/26 08:21:33;;;;;;;4.10;2.40;;;12.10;99.90;;;;;;4960891;28;21038;-30
2023/12/26 08:23:59;;;;;;;6.03;2.50;;;12.10;99.90;;;;;;4978904;28;20467;-34
2023/12/26 08:26:31;;;;;;;5.17;2.73;;;12.10;99.90;;;;;;4977930;28;20511;-32
2023/12/26 08:28:57;;;;;;;3.60;2.03;;;12.10;99.90;;;;;;4994519;28;20455;-31
2023/12/26 08:31:29;;;;;;;6.57;2.50;;;12.10;99.90;;;;;;4999084;28;20436;-31
2023/12/26 08:33:56;;;;;;;4.73;2.50;;;12.10;99.90;;;;;;4973852;28;20445;-30
2023/12/26 08:36:22;;;;;;;4.97;2.53;;;12.10;99.90;;;;;;4978131;28;20532;-31
2023/12/26 08:38:51;;;;;;;3.20;2.53;;;12.10;99.90;;;;;;4960234;28;20458;-31
2023/12/26 08:41:17;;;;;;;6.90;2.30;;;12.10;99.90;;;;;;4995848;28;20547;-34
2023/12/26 08:43:43;;;;;;;4.67;2.10;;;12.10;99.90;;;;;;4996003;28;20436;-34
2023/12/26 08:46:09;;;;;;;5.17;2.40;;;12.10;99.90;;;;;;4995044;28;21320;-33
2023/12/26 08:48:35;;;;;;;3.57;1.80;;;12.10;99.90;;;;;;4978253;28;20464;-34
2023/12/26 08:51:01;;;;;;;5.00;2.40;;;12.00;99.90;;;;;;4957060;28;20469;-30
2023/12/26 08:53:30;;;;;;;3.13;1.80;;;12.10;99.90;;;;;;4994722;28;20429;-36
2023/12/26 08:56:03;;;;;;;7.40;2.10;;;12.00;99.90;;;;;;4979625;28;20476;-31
2023/12/26 08:58:32;;;;;;;5.33;2.50;;;12.10;99.90;;;;;;4995052;28;20433;-31
2023/12/26 09:01:00;;;;;;;5.40;2.30;;;12.00;99.90;;;;;;4960635;28;20433;-30
2023/12/26 09:03:27;;;;;;;6.10;2.20;;;12.00;99.90;;;;;;4960886;28;20445;-32
2023/12/26 09:05:54;;;;;;;4.60;2.13;;;12.00;99.90;;;;;;4959972;28;20449;-31
2023/12/26 09:08:20;;;;;;;3.47;1.93;;;12.00;99.90;;;;;;5000938;28;20563;-31
2023/12/26 09:10:48;;;;;;;6.77;3.00;;;12.00;99.90;;;;;;4998196;28;20849;-37
2023/12/26 09:13:20;;;;;;;3.10;2.17;;;12.00;99.90;;;;;;4975543;28;20491;-38
2023/12/26 09:15:50;;;;;;;5.60;2.60;;;12.00;99.90;;;;;;4977524;28;20428;-35
2023/12/26 09:18:16;;;;;;;3.30;2.40;;;12.00;99.90;;;;;;4978966;28;20667;-40
2023/12/26 09:20:45;;;;;;;3.10;2.37;;;12.00;99.90;;;;;;4995125;28;20540;-36
2023/12/26 09:23:12;;;;;;;2.30;1.90;;;12.00;99.90;;;;;;4996196;28;20441;-39
2023/12/26 09:25:43;;;;;;;3.53;2.17;;;12.00;99.90;;;;;;4995243;28;20424;-40
2023/12/26 09:28:13;;;;;;;2.60;2.00;;;12.00;99.90;;;;;;4994230;28;20476;-39
2023/12/26 09:30:39;;;;;;;3.43;3.13;;;12.00;99.90;;;;;;4973974;28;20499;-41
2023/12/26 09:33:05;;;;;;;4.30;2.30;;;12.00;99.90;;;;;;4999883;23;20495;-33
2023/12/26 09:35:31;;;;;;;6.23;2.70;;;12.00;99.90;;;;;;5010747;28;20946;-30
2023/12/26 09:37:57;;;;;;;4.23;2.70;;;12.00;99.90;;;;;;5001720;28;20539;-33
2023/12/26 09:40:23;;;;;;;3.83;2.53;;;12.00;99.90;;;;;;4999414;28;20463;-36
2023/12/26 09:42:59;;;;;;;4.63;2.10;;;12.00;99.90;;;;;;4992391;28;20409;-37
2023/12/26 09:45:28;;;;;;;4.37;2.00;;;12.00;99.90;;;;;;4993590;28;20440;-36
2023/12/26 09:47:55;;;;;;;3.93;1.93;;;12.00;99.90;;;;;;5001802;28;20496;-35
2023/12/26 09:50:24;;;;;;;3.83;2.47;;;12.00;99.90;;;;;;4999053;28;20444;-39
2023/12/26 09:52:58;;;;;;;4.07;2.00;;;12.00;99.90;;;;;;4999974;28;20805;-33
2023/12/26 09:55:29;;;;;;;5.57;2.50;;;11.90;99.90;;;;;;4978069;28;20428;-30
2023/12/26 09:57:59;;;;;;;4.13;2.67;;;12.00;99.90;;;;;;4989876;28;21276;-30
2023/12/26 10:00:29;;;;;;;4.93;2.40;;;12.00;99.90;;;;;;4999621;28;20417;-35
2023/12/26 10:02:57;;;;;;;4.90;2.30;;;12.00;99.90;;;;;;4997112;28;20475;-32
2023/12/26 10:05:24;;;;;;;6.23;2.63;;;12.00;99.90;;;;;;5001206;28;20461;-31
2023/12/26 10:07:51;;;;;;;5.37;2.33;;;12.00;99.90;;;;;;5000077;28;20602;-34
2023/12/26 10:10:20;;;;;;;5.03;2.33;;;11.90;99.90;;;;;;5000150;28;20429;-33
2023/12/26 10:12:50;;;;;;;5.47;3.27;;;12.00;99.90;;;;;;4985814;28;20463;-30
2023/12/26 10:15:18;;;;;;;3.90;2.30;;;11.90;99.90;;;;;;4993060;28;20507;-33
2023/12/26 10:17:46;;;;;;;4.77;2.13;;;12.00;99.90;;;;;;4987942;28;21159;-36
2023/12/26 10:20:17;;;;;;;5.30;2.30;;;11.90;99.90;;;;;;4992354;28;21069;-35
2023/12/26 10:22:44;;;;;;;5.73;2.70;;;12.00;99.90;;;;;;4983845;28;20629;-33
2023/12/26 10:25:14;;;;;;;2.43;2.07;;;12.00;99.90;;;;;;4980663;28;20432;-33
2023/12/26 10:27:52;;;;;;;6.50;2.30;;;11.90;99.90;;;;;;4985612;28;20468;-32
2023/12/26 10:30:21;;;;;;;7.60;2.33;;;12.00;99.90;;;;;;4997820;28;20499;-38
2023/12/26 10:33:12;;;;;;;5.03;2.30;;;12.00;99.90;;;;;;4980896;28;20564;-38
2023/12/26 10:39:01;;;;;;;5.03;2.77;;;11.90;99.90;;;;;;4986971;28;20432;-35
2023/12/26 10:41:28;;;;;;;4.03;2.50;;;11.90;99.90;;;;;;4973469;28;20443;-38
2023/12/26 10:43:59;;;;;;;6.27;2.40;;;11.90;99.90;;;;;;4979458;28;20439;-38
2023/12/26 10:46:27;;;;;;;6.10;2.50;;;11.90;99.90;;;;;;4979688;28;21266;-36
2023/12/26 10:48:56;;;;;;;5.60;2.47;;;11.90;99.90;;;;;;4996693;28;21002;-37
2023/12/26 10:51:26;;;;;;;3.17;2.23;;;11.90;99.90;;;;;;4996370;28;20447;-36
2023/12/26 10:54:01;;;;;;;7.87;2.40;;;11.90;99.90;;;;;;4986735;28;20444;-37
2023/12/26 10:56:31;;;;;;;6.50;2.53;;;11.90;99.90;;;;;;4993479;28;20468;-33
2023/12/26 10:59:04;;;;;;;5.53;2.50;;;11.90;99.90;;;;;;4981407;28;20449;-39
2023/12/26 13:51:30;;;;;;;7.37;2.67;;;11.60;99.90;;;;;;4999569;28;20574;-33
2023/12/26 13:54:34;;;;;;;7.53;2.20;;;11.60;99.90;;;;;;4996306;28;20910;-31
2023/12/26 13:57:37;;;;;;;6.23;2.50;;;11.60;99.90;;;;;;4981550;28;20448;-33
2023/12/26 14:00:04;;;;;;;8.77;2.80;;;11.60;99.90;;;;;;4998927;28;20420;-35
2023/12/26 14:02:38;;;;;;;9.03;2.63;;;11.70;99.90;;;;;;4987202;28;20882;-32
2023/12/26 14:05:07;;;;;;;4.93;2.40;;;11.70;99.90;;;;;;5001196;28;20435;-33
2023/12/26 14:08:17;;;;;;;6.70;2.90;;;11.70;99.90;;;;;;4997612;28;20468;-30
2023/12/26 14:11:21;;;;;;;4.03;2.70;;;11.70;99.90;;;;;;4985949;28;20456;-31
2023/12/26 14:14:25;;;;;;;8.13;3.20;;;11.70;99.90;;;;;;4994532;28;20463;-31
2023/12/26 14:17:29;;;;;;;4.50;2.40;;;11.70;99.90;;;;;;4992977;28;21278;-31
2023/12/26 14:20:32;;;;;;;6.00;3.20;;;11.70;99.90;;;;;;4994605;28;20474;-32
2023/12/26 14:23:37;;;;;;;9.90;2.93;;;11.70;99.90;;;;;;4993123;28;20888;-29
2023/12/26 14:26:43;;;;;;;5.00;2.40;;;11.70;99.90;;;;;;4992914;28;20984;-33
2023/12/26 14:29:46;;;;;;;3.40;2.70;;;11.60;99.90;;;;;;4995845;28;21017;-32
2023/12/26 14:32:50;;;;;;;5.00;2.43;;;11.60;99.90;;;;;;4974743;28;20527;-32
2023/12/26 14:35:56;;;;;;;8.17;2.87;;;11.60;99.90;;;;;;4986784;28;20947;-31
2023/12/26 14:38:22;;;;;;;7.23;2.97;;;11.60;99.90;;;;;;5000082;28;20653;-35
2023/12/26 14:40:48;;;;;;;6.13;2.60;;;11.60;99.90;;;;;;4988085;28;20947;-26
2023/12/26 14:43:16;;;;;;;7.07;2.60;;;11.60;99.90;;;;;;4984728;28;20420;-36
2023/12/26 14:45:42;;;;;;;5.93;2.97;;;11.60;99.90;;;;;;5002127;28;20431;-29
2023/12/26 14:48:46;;;;;;;9.80;3.03;;;11.60;99.90;;;;;;4995900;28;21084;-31
2023/12/26 14:51:50;;;;;;;7.77;3.17;;;11.60;99.90;;;;;;4994232;28;20420;-30
2023/12/26 14:54:55;;;;;;;7.30;3.33;;;11.60;99.90;;;;;;4997101;28;20551;-31
2023/12/26 14:58:02;;;;;;;5.80;2.90;;;11.60;99.90;;;;;;4998207;28;20439;-29
2023/12/26 15:01:06;;;;;;;7.30;2.87;;;11.60;99.90;;;;;;5001219;28;20464;-32
2023/12/26 15:03:34;;;;;;;7.80;2.97;;;11.60;99.90;;;;;;4988764;28;20467;-34
2023/12/26 15:06:01;;;;;;;6.97;2.83;;;11.60;99.90;;;;;;4995645;28;20439;-29
2023/12/26 15:08:27;;;;;;;8.57;2.90;;;11.60;99.90;;;;;;4991318;28;20473;-32
2023/12/26 15:10:54;;;;;;;6.50;2.80;;;11.60;99.90;;;;;;4982181;28;20474;-35
2023/12/26 15:13:22;;;;;;;5.60;2.80;;;11.60;99.90;;;;;;4997065;28;20539;-30
2023/12/26 15:15:51;;;;;;;7.77;3.10;;;11.60;99.90;;;;;;4981890;28;20507;-29
2023/12/26 15:18:17;;;;;;;7.93;3.17;;;11.60;99.90;;;;;;4997208;28;20440;-36
2023/12/26 15:20:43;;;;;;;9.13;2.83;;;11.60;99.90;;;;;;4996709;28;20488;-28
2023/12/26 15:23:09;;;;;;;10.93;3.20;;;11.60;99.90;;;;;;5002793;28;20420;-35
2023/12/26 15:25:35;;;;;;;5.27;2.50;;;11.60;99.90;;;;;;5006209;28;20423;-33
2023/12/26 15:28:01;;;;;;;5.70;3.00;;;11.60;99.90;;;;;;4989815;28;20472;-29
2023/12/26 15:30:30;;;;;;;6.33;3.40;;;11.60;99.90;;;;;;4994736;28;20435;-35
2023/12/26 15:32:58;;;;;;;8.03;3.10;;;11.60;99.90;;;;;;5002508;28;20534;-33
2023/12/26 15:35:24;;;;;;;8.00;2.87;;;11.60;99.90;;;;;;5006770;28;20449;-31
2023/12/26 15:37:51;;;;;;;5.60;3.73;;;11.60;99.90;;;;;;4996684;28;20448;-33
2023/12/26 15:40:18;;;;;;;7.27;3.10;;;11.60;99.90;;;;;;5005597;28;20445;-31
2023/12/26 15:42:47;;;;;;;8.10;3.60;;;11.60;99.90;;;;;;4999775;28;20853;-27
2023/12/26 15:45:19;;;;;;;7.40;3.10;;;11.60;99.90;;;;;;4994681;28;20435;-31
2023/12/26 15:47:45;;;;;;;8.30;3.53;;;11.60;99.90;;;;;;4995593;28;21138;-32
2023/12/26 15:50:11;;;;;;;6.00;2.97;;;11.60;99.90;;;;;;5003442;28;20439;-27
2023/12/26 15:52:37;;;;;;;6.93;3.10;;;11.60;99.90;;;;;;4992677;28;20999;-32
2023/12/26 15:55:06;;;;;;;8.40;3.10;;;11.60;99.90;;;;;;5003222;28;20522;-30